createdAt,value
2019-05-19T00:01:27.561Z,88.40
2019-05-19T00:03:56.251Z,88.40
2019-05-19T00:06:24.890Z,88.40
2019-05-19T00:08:53.517Z,88.40
2019-05-19T00:11:22.246Z,88.40
2019-05-19T00:13:50.921Z,88.40
2019-05-19T00:16:19.634Z,88.40
2019-05-19T00:18:48.339Z,88.40
2019-05-19T00:21:24.688Z,88.40
2019-05-19T00:23:53.467Z,88.50
2019-05-19T00:26:22.127Z,88.50
2019-05-19T00:28:50.835Z,88.80
2019-05-19T00:31:19.556Z,89.10
2019-05-19T00:33:48.257Z,89.30
2019-05-19T00:36:19.509Z,89.30
2019-05-19T00:38:47.223Z,89.20
2019-05-19T00:41:15.854Z,89.10
2019-05-19T00:43:44.800Z,89.00
2019-05-19T00:46:13.515Z,89.30
2019-05-19T00:48:42.218Z,89.40
2019-05-19T00:51:10.925Z,89.50
2019-05-19T00:53:39.625Z,89.70
2019-05-19T00:56:08.451Z,89.70
2019-05-19T00:58:37.553Z,89.80
2019-05-19T01:01:06.227Z,89.90
2019-05-19T01:03:34.873Z,89.90
2019-05-19T01:06:03.563Z,90.00
2019-05-19T01:08:32.273Z,90.00
2019-05-19T01:11:00.934Z,90.00
2019-05-19T01:13:29.586Z,90.20
2019-05-19T01:15:58.271Z,90.20
2019-05-19T01:18:26.920Z,90.10
2019-05-19T01:20:55.626Z,90.00
2019-05-19T01:23:24.418Z,90.10
2019-05-19T01:25:53.129Z,90.10
2019-05-19T01:28:21.818Z,90.20
2019-05-19T01:30:50.463Z,90.20
2019-05-19T01:33:19.144Z,90.20
2019-05-19T01:35:47.895Z,90.20
2019-05-19T01:38:16.568Z,90.30
2019-05-19T01:40:45.292Z,90.30
2019-05-19T01:43:13.991Z,90.30
2019-05-19T01:45:42.630Z,90.40
2019-05-19T01:48:11.370Z,90.50
2019-05-19T01:50:40.073Z,90.60
2019-05-19T01:53:08.727Z,90.70
2019-05-19T01:55:37.430Z,90.60
2019-05-19T01:58:06.040Z,90.60
2019-05-19T02:00:34.739Z,90.60
2019-05-19T02:03:03.420Z,90.70
2019-05-19T02:05:32.125Z,90.60
2019-05-19T02:08:00.738Z,90.60
2019-05-19T02:10:29.450Z,90.80
2019-05-19T02:12:58.136Z,90.80
2019-05-19T02:15:26.850Z,90.80
2019-05-19T02:17:55.598Z,90.80
2019-05-19T02:20:32.931Z,90.80
2019-05-19T02:22:54.706Z,90.80
2019-05-19T02:25:23.414Z,90.80
2019-05-19T02:27:52.035Z,90.70
2019-05-19T02:30:21.020Z,90.70
2019-05-19T02:32:49.716Z,90.70
2019-05-19T02:35:18.428Z,90.90
2019-05-19T02:37:47.065Z,91.00
2019-05-19T02:40:16.154Z,91.30
2019-05-19T02:42:46.942Z,91.10
2019-05-19T02:45:15.765Z,91.30
2019-05-19T02:47:45.244Z,91.30
2019-05-19T02:50:14.127Z,91.10
2019-05-19T02:52:46.148Z,91.10
2019-05-19T02:55:15.271Z,91.00
2019-05-19T02:57:44.368Z,91.20
2019-05-19T03:00:13.449Z,91.20
2019-05-19T03:02:42.193Z,91.30
2019-05-19T03:05:10.960Z,91.20
2019-05-19T03:07:39.567Z,91.20
2019-05-19T03:10:08.631Z,91.20
2019-05-19T03:12:37.311Z,91.20
2019-05-19T03:15:06.628Z,91.20
2019-05-19T03:17:35.346Z,91.20
2019-05-19T03:20:07.956Z,91.30
2019-05-19T03:22:36.662Z,91.30
2019-05-19T03:25:07.966Z,91.30
2019-05-19T03:27:36.698Z,91.40
2019-05-19T03:30:25.841Z,91.40
2019-05-19T03:33:12.571Z,91.40
2019-05-19T03:35:41.381Z,91.40
2019-05-19T03:38:10.078Z,91.30
2019-05-19T03:40:38.653Z,91.30
2019-05-19T03:43:07.369Z,91.20
2019-05-19T03:45:35.991Z,91.30
2019-05-19T03:48:05.082Z,91.20
2019-05-19T03:50:33.890Z,91.40
2019-05-19T03:53:02.491Z,91.30
2019-05-19T03:55:31.234Z,91.30
2019-05-19T03:57:59.904Z,91.40
2019-05-19T04:00:28.545Z,91.40
2019-05-19T04:02:57.247Z,91.40
2019-05-19T04:05:25.958Z,91.50
2019-05-19T04:07:54.732Z,91.50
2019-05-19T04:10:23.465Z,91.60
2019-05-19T04:12:52.177Z,91.60
2019-05-19T04:15:20.919Z,91.90
2019-05-19T04:17:49.615Z,91.60
2019-05-19T04:20:18.615Z,91.40
2019-05-19T04:22:47.320Z,91.30
2019-05-19T04:25:16.003Z,91.10
2019-05-19T04:27:44.721Z,91.00
2019-05-19T04:30:15.351Z,90.90
2019-05-19T04:32:44.084Z,90.90
2019-05-19T04:35:12.938Z,90.70
2019-05-19T04:37:41.724Z,90.40
2019-05-19T04:40:10.611Z,90.30
2019-05-19T04:42:39.284Z,90.40
2019-05-19T04:45:07.983Z,90.40
2019-05-19T04:47:36.746Z,90.30
2019-05-19T04:50:07.083Z,90.30
2019-05-19T04:52:35.762Z,90.20
2019-05-19T04:55:05.268Z,90.00
2019-05-19T04:57:34.488Z,89.60
2019-05-19T05:00:03.538Z,89.40
2019-05-19T05:02:32.202Z,88.90
2019-05-19T05:05:00.858Z,88.70
2019-05-19T05:07:29.534Z,88.70
2019-05-19T05:09:58.248Z,88.70
2019-05-19T05:12:26.862Z,88.70
2019-05-19T05:14:55.562Z,88.50
2019-05-19T05:17:24.196Z,88.20
2019-05-19T05:19:52.871Z,88.40
2019-05-19T05:22:22.490Z,88.20
2019-05-19T05:24:51.415Z,87.90
2019-05-19T05:27:20.226Z,88.00
2019-05-19T05:29:48.910Z,87.70
2019-05-19T05:32:17.567Z,87.50
2019-05-19T05:34:46.246Z,87.70
2019-05-19T05:37:15.075Z,88.00
2019-05-19T05:39:43.800Z,87.60
2019-05-19T05:42:12.439Z,87.10
2019-05-19T05:44:41.110Z,87.50
2019-05-19T05:47:09.859Z,86.70
2019-05-19T05:49:38.558Z,86.80
2019-05-19T05:52:07.202Z,86.50
2019-05-19T05:54:35.951Z,85.80
2019-05-19T05:57:04.590Z,85.50
2019-05-19T05:59:33.295Z,85.10
2019-05-19T06:02:01.900Z,84.30
2019-05-19T06:04:30.604Z,83.90
2019-05-19T06:06:59.276Z,83.80
2019-05-19T06:09:28.034Z,83.10
2019-05-19T06:11:56.678Z,82.80
2019-05-19T06:14:25.329Z,81.90
2019-05-19T06:16:54.016Z,81.90
2019-05-19T06:19:22.717Z,81.20
2019-05-19T06:21:51.411Z,79.80
2019-05-19T06:24:20.058Z,80.00
2019-05-19T06:26:48.671Z,80.10
2019-05-19T06:29:17.309Z,79.60
2019-05-19T06:31:46.066Z,79.70
2019-05-19T06:34:14.764Z,80.30
2019-05-19T06:36:43.529Z,78.60
2019-05-19T06:39:15.141Z,79.10
2019-05-19T06:41:43.817Z,79.70
2019-05-19T06:44:12.456Z,79.10
2019-05-19T06:46:41.203Z,79.40
2019-05-19T06:49:09.855Z,79.60
2019-05-19T06:51:38.470Z,79.80
2019-05-19T06:54:07.179Z,80.60
2019-05-19T06:56:35.864Z,81.50
2019-05-19T06:59:04.556Z,82.90
2019-05-19T07:01:33.263Z,83.70
2019-05-19T07:04:01.868Z,85.30
2019-05-19T07:06:30.672Z,86.10
2019-05-19T07:08:59.372Z,87.30
2019-05-19T07:11:28.012Z,89.00
2019-05-19T07:13:56.735Z,89.50
2019-05-19T07:16:25.451Z,90.20
2019-05-19T07:18:54.206Z,90.20
2019-05-19T07:21:22.860Z,91.30
2019-05-19T07:23:51.597Z,91.80
2019-05-19T07:26:20.279Z,91.50
2019-05-19T07:28:48.914Z,91.20
2019-05-19T07:31:17.551Z,91.50
2019-05-19T07:33:46.313Z,91.40
2019-05-19T07:36:15.018Z,90.50
2019-05-19T07:38:43.705Z,90.90
2019-05-19T07:41:12.452Z,92.10
2019-05-19T07:43:41.101Z,92.20
2019-05-19T07:46:09.815Z,91.70
2019-05-19T07:48:38.521Z,91.80
2019-05-19T07:51:07.285Z,92.30
2019-05-19T07:53:43.141Z,92.80
2019-05-19T07:56:06.359Z,92.90
2019-05-19T07:58:35.051Z,92.50
2019-05-19T08:01:03.831Z,92.30
2019-05-19T08:03:32.526Z,92.30
2019-05-19T08:06:01.193Z,92.00
2019-05-19T08:08:29.885Z,91.60
2019-05-19T08:10:58.620Z,91.20
2019-05-19T08:13:27.302Z,90.20
2019-05-19T08:15:56.039Z,90.30
2019-05-19T08:18:25.014Z,89.40
2019-05-19T08:20:53.727Z,89.30
2019-05-19T08:23:22.338Z,89.30
2019-05-19T08:25:51.016Z,88.70
2019-05-19T08:28:19.733Z,87.90
2019-05-19T08:30:48.349Z,88.40
2019-05-19T08:33:17.136Z,88.80
2019-05-19T08:35:45.863Z,88.80
2019-05-19T08:38:14.535Z,87.70
2019-05-19T08:40:43.226Z,87.50
2019-05-19T08:43:11.908Z,87.10
2019-05-19T08:45:40.545Z,88.10
2019-05-19T08:48:09.296Z,86.80
2019-05-19T08:50:38.019Z,87.30
2019-05-19T08:53:06.691Z,89.90
2019-05-19T08:55:35.358Z,88.00
2019-05-19T08:58:04.420Z,87.90
2019-05-19T09:00:37.651Z,85.80
2019-05-19T09:03:03.662Z,86.30
2019-05-19T09:05:32.297Z,85.30
2019-05-19T09:08:01.016Z,85.70
2019-05-19T09:10:29.678Z,86.60
2019-05-19T09:12:58.390Z,86.60
2019-05-19T09:15:27.046Z,86.50
2019-05-19T09:17:55.772Z,86.40
2019-05-19T09:20:24.515Z,85.00
2019-05-19T09:22:53.159Z,85.70
2019-05-19T09:25:21.764Z,81.90
2019-05-19T09:27:50.404Z,82.30
2019-05-19T09:30:19.145Z,82.00
2019-05-19T09:32:47.752Z,80.10
2019-05-19T09:35:16.731Z,77.40
2019-05-19T09:37:45.377Z,77.10
2019-05-19T09:40:14.251Z,76.40
2019-05-19T09:42:42.871Z,76.60
2019-05-19T09:45:12.660Z,76.90
2019-05-19T09:47:41.739Z,75.90
2019-05-19T09:50:10.812Z,74.70
2019-05-19T09:52:39.527Z,74.80
2019-05-19T09:55:08.539Z,74.50
2019-05-19T09:57:44.055Z,74.40
2019-05-19T10:00:13.204Z,71.80
2019-05-19T10:02:41.907Z,71.40
2019-05-19T10:05:11.032Z,71.10
2019-05-19T10:07:39.660Z,71.80
2019-05-19T10:10:11.208Z,71.10
2019-05-19T10:12:39.934Z,68.40
2019-05-19T10:15:10.343Z,67.60
2019-05-19T10:17:39.056Z,67.40
2019-05-19T10:20:09.540Z,67.40
2019-05-19T10:22:38.234Z,64.30
2019-05-19T10:25:21.843Z,64.00
2019-05-19T10:27:40.138Z,62.50
2019-05-19T10:30:09.980Z,59.70
2019-05-19T10:32:38.607Z,58.20
2019-05-19T10:35:07.569Z,57.70
2019-05-19T10:37:36.265Z,57.60
2019-05-19T10:40:06.875Z,57.60
2019-05-19T10:42:35.808Z,57.60
2019-05-19T10:45:07.249Z,57.10
2019-05-19T10:47:35.962Z,56.70
2019-05-19T10:50:05.079Z,56.40
2019-05-19T10:52:33.695Z,54.10
2019-05-19T10:55:02.351Z,54.20
2019-05-19T10:57:30.978Z,53.80
2019-05-19T10:59:59.615Z,54.50
2019-05-19T11:02:28.333Z,55.50
2019-05-19T11:04:56.980Z,53.80
2019-05-19T11:07:25.682Z,53.60
2019-05-19T11:09:54.370Z,53.60
2019-05-19T11:12:22.978Z,53.60
2019-05-19T11:14:51.676Z,49.90
2019-05-19T11:17:20.321Z,49.90
2019-05-19T11:19:48.913Z,49.40
2019-05-19T11:22:17.553Z,50.30
2019-05-19T11:24:46.322Z,50.10
2019-05-19T11:27:14.972Z,48.00
2019-05-19T11:29:43.657Z,48.20
2019-05-19T11:32:12.324Z,47.70
2019-05-19T11:34:41.047Z,47.40
2019-05-19T11:37:09.651Z,47.90
2019-05-19T11:39:38.360Z,46.60
2019-05-19T11:42:07.100Z,44.80
2019-05-19T11:44:35.729Z,44.20
2019-05-19T11:47:04.431Z,44.70
2019-05-19T11:49:33.042Z,44.80
2019-05-19T11:52:01.765Z,44.00
2019-05-19T11:54:30.371Z,42.60
2019-05-19T11:56:59.055Z,42.50
2019-05-19T11:59:27.752Z,40.80
2019-05-19T12:01:56.542Z,39.40
2019-05-19T12:04:25.172Z,39.70
2019-05-19T12:06:53.913Z,39.30
2019-05-19T12:09:22.541Z,38.20
2019-05-19T12:11:51.206Z,36.10
2019-05-19T12:14:19.827Z,35.10
2019-05-19T12:16:48.614Z,33.60
2019-05-19T12:19:17.295Z,34.40
2019-05-19T12:21:45.999Z,34.80
2019-05-19T12:24:14.611Z,34.70
2019-05-19T12:26:43.237Z,35.50
2019-05-19T12:29:11.885Z,35.60
2019-05-19T12:31:40.636Z,34.30
2019-05-19T12:34:09.412Z,31.80
2019-05-19T12:36:38.084Z,32.40
2019-05-19T12:39:07.200Z,33.60
2019-05-19T12:41:35.941Z,36.30
2019-05-19T12:44:04.570Z,37.50
2019-05-19T12:46:33.203Z,38.40
2019-05-19T12:49:01.951Z,38.20
2019-05-19T12:51:30.601Z,38.30
2019-05-19T12:53:59.301Z,38.70
2019-05-19T12:56:39.164Z,38.70
2019-05-19T12:58:58.303Z,37.40
2019-05-19T13:01:27.198Z,35.90
2019-05-19T13:03:57.270Z,32.90
2019-05-19T13:06:25.913Z,33.90
2019-05-19T13:08:54.596Z,34.30
2019-05-19T13:11:23.315Z,32.30
2019-05-19T13:13:52.051Z,29.80
2019-05-19T13:16:20.695Z,28.50
2019-05-19T13:18:49.419Z,26.20
2019-05-19T13:21:18.130Z,24.30
2019-05-19T13:23:46.957Z,24.50
2019-05-19T13:26:15.611Z,23.40
2019-05-19T13:28:44.329Z,22.00
2019-05-19T13:31:12.972Z,20.90
2019-05-19T13:33:41.699Z,21.40
2019-05-19T13:36:10.357Z,21.80
2019-05-19T13:38:39.054Z,22.40
2019-05-19T13:41:07.771Z,23.00
2019-05-19T13:43:36.481Z,25.00
2019-05-19T13:46:05.106Z,26.90
2019-05-19T13:48:33.785Z,29.10
2019-05-19T13:51:02.488Z,30.10
2019-05-19T13:53:32.750Z,30.60
2019-05-19T13:56:01.467Z,30.40
2019-05-19T13:58:30.220Z,30.10
2019-05-19T14:00:58.981Z,30.70
2019-05-19T14:03:27.626Z,31.10
2019-05-19T14:05:56.280Z,31.70
2019-05-19T14:08:25.050Z,32.60
2019-05-19T14:10:54.538Z,33.90
2019-05-19T14:13:23.235Z,35.50
2019-05-19T14:15:52.141Z,36.50
2019-05-19T14:18:20.837Z,37.90
2019-05-19T14:20:49.760Z,38.50
2019-05-19T14:23:18.478Z,38.70
2019-05-19T14:25:47.133Z,38.00
2019-05-19T14:28:15.786Z,38.50
2019-05-19T14:30:44.415Z,38.80
2019-05-19T14:33:13.209Z,38.90
2019-05-19T14:35:41.968Z,39.90
2019-05-19T14:38:10.676Z,40.70
2019-05-19T14:40:39.309Z,40.80
2019-05-19T14:43:08.058Z,41.40
2019-05-19T14:45:36.714Z,41.60
2019-05-19T14:48:05.421Z,41.00
2019-05-19T14:50:34.111Z,41.40
2019-05-19T14:53:02.880Z,42.30
2019-05-19T14:55:31.647Z,42.80
2019-05-19T14:58:00.451Z,42.00
2019-05-19T15:00:29.097Z,41.60
2019-05-19T15:02:57.839Z,41.20
2019-05-19T15:05:26.525Z,41.70
2019-05-19T15:07:55.277Z,41.80
2019-05-19T15:10:23.959Z,42.10
2019-05-19T15:12:52.667Z,42.70
2019-05-19T15:15:21.317Z,43.20
2019-05-19T15:17:50.046Z,43.60
2019-05-19T15:20:18.644Z,43.50
2019-05-19T15:22:47.299Z,42.20
2019-05-19T15:25:16.638Z,42.30
2019-05-19T15:27:59.397Z,42.60
2019-05-19T15:30:15.855Z,43.20
2019-05-19T15:32:44.572Z,43.70
2019-05-19T15:35:13.760Z,43.90
2019-05-19T15:37:42.531Z,44.70
2019-05-19T15:40:11.419Z,45.00
2019-05-19T15:42:40.124Z,45.30
2019-05-19T15:45:09.238Z,45.10
2019-05-19T15:47:38.037Z,45.10
2019-05-19T15:50:08.547Z,45.70
2019-05-19T15:52:37.248Z,45.90
2019-05-19T15:55:06.467Z,45.70
2019-05-19T15:57:35.479Z,45.60
2019-05-19T16:00:06.934Z,45.80
2019-05-19T16:02:35.628Z,46.00
2019-05-19T16:05:06.597Z,46.30
2019-05-19T16:07:35.225Z,46.50
2019-05-19T16:10:07.127Z,46.80
2019-05-19T16:12:35.985Z,47.20
2019-05-19T16:15:07.154Z,47.50
2019-05-19T16:17:35.745Z,48.00
2019-05-19T16:20:07.445Z,48.80
2019-05-19T16:22:36.236Z,50.20
2019-05-19T16:25:09.673Z,53.50
2019-05-19T16:27:38.623Z,56.70
2019-05-19T16:30:09.578Z,58.80
2019-05-19T16:32:39.103Z,60.00
2019-05-19T16:35:11.043Z,62.20
2019-05-19T16:37:39.808Z,64.60
2019-05-19T16:40:12.397Z,65.00
2019-05-19T16:42:41.158Z,67.20
2019-05-19T16:45:12.867Z,69.00
2019-05-19T16:47:43.317Z,70.10
2019-05-19T16:50:16.593Z,72.80
2019-05-19T16:52:47.680Z,75.20
2019-05-19T16:55:26.844Z,77.50
2019-05-19T16:57:55.562Z,77.80
2019-05-19T17:00:24.710Z,79.90
2019-05-19T17:02:53.433Z,79.60
2019-05-19T17:05:22.046Z,79.90
2019-05-19T17:07:50.765Z,78.80
2019-05-19T17:10:19.648Z,80.40
2019-05-19T17:12:48.330Z,78.60
2019-05-19T17:15:18.712Z,78.80
2019-05-19T17:17:47.407Z,80.30
2019-05-19T17:20:17.088Z,80.90
2019-05-19T17:22:45.761Z,81.30
2019-05-19T17:25:14.666Z,81.00
2019-05-19T17:27:43.345Z,81.80
2019-05-19T17:30:13.099Z,81.80
2019-05-19T17:32:41.847Z,81.70
2019-05-19T17:35:11.468Z,81.90
2019-05-19T17:37:40.205Z,82.50
2019-05-19T17:40:09.460Z,81.90
2019-05-19T17:42:38.173Z,81.40
2019-05-19T17:45:07.425Z,81.70
2019-05-19T17:47:36.196Z,82.20
2019-05-19T17:50:05.424Z,83.30
2019-05-19T17:52:34.233Z,82.10
2019-05-19T17:55:04.543Z,82.70
2019-05-19T17:57:33.653Z,83.00
2019-05-19T18:00:03.726Z,83.40
2019-05-19T18:02:32.336Z,84.10
2019-05-19T18:05:00.971Z,83.70
2019-05-19T18:07:29.640Z,84.20
2019-05-19T18:09:58.276Z,84.30
2019-05-19T18:12:27.168Z,84.60
2019-05-19T18:14:55.856Z,85.10
2019-05-19T18:17:24.463Z,85.00
2019-05-19T18:19:53.235Z,85.80
2019-05-19T18:22:21.855Z,86.70
2019-05-19T18:24:50.628Z,85.60
2019-05-19T18:27:19.249Z,85.70
2019-05-19T18:29:47.910Z,85.10
2019-05-19T18:32:16.625Z,85.10
2019-05-19T18:34:45.332Z,86.00
2019-05-19T18:37:14.035Z,84.70
2019-05-19T18:39:42.704Z,85.00
2019-05-19T18:42:11.360Z,85.50
2019-05-19T18:44:40.026Z,85.20
2019-05-19T18:47:08.692Z,85.10
2019-05-19T18:49:37.414Z,85.80
2019-05-19T18:52:06.095Z,86.60
2019-05-19T18:54:34.884Z,86.80
2019-05-19T18:57:03.659Z,86.80
2019-05-19T18:59:46.458Z,85.70
2019-05-19T19:02:02.775Z,86.60
2019-05-19T19:04:31.517Z,86.40
2019-05-19T19:07:00.253Z,86.60
2019-05-19T19:09:28.892Z,87.00
2019-05-19T19:11:57.563Z,87.50
2019-05-19T19:14:27.719Z,88.80
2019-05-19T19:16:56.514Z,88.20
2019-05-19T19:19:25.246Z,88.10
2019-05-19T19:21:53.949Z,88.60
2019-05-19T19:24:22.638Z,87.80
2019-05-19T19:26:51.411Z,88.40
2019-05-19T19:29:20.031Z,88.30
2019-05-19T19:31:49.033Z,87.70
2019-05-19T19:34:18.465Z,87.40
2019-05-19T19:36:47.203Z,87.60
2019-05-19T19:39:15.862Z,87.40
2019-05-19T19:41:44.473Z,87.80
2019-05-19T19:44:13.171Z,87.40
2019-05-19T19:46:41.887Z,87.70
2019-05-19T19:49:10.531Z,88.20
2019-05-19T19:51:39.169Z,88.20
2019-05-19T19:54:09.695Z,87.60
2019-05-19T19:56:38.371Z,87.80
2019-05-19T19:59:07.093Z,87.70
2019-05-19T20:01:35.764Z,87.70
2019-05-19T20:04:05.991Z,88.30
2019-05-19T20:06:34.692Z,87.50
2019-05-19T20:09:03.799Z,87.10
2019-05-19T20:11:32.484Z,87.40
2019-05-19T20:14:01.347Z,88.60
2019-05-19T20:16:30.052Z,89.10
2019-05-19T20:18:58.713Z,87.70
2019-05-19T20:21:27.410Z,88.40
2019-05-19T20:23:56.020Z,87.20
2019-05-19T20:26:24.666Z,88.40
2019-05-19T20:28:53.279Z,89.40
2019-05-19T20:31:22.028Z,89.10
2019-05-19T20:33:50.735Z,88.40
2019-05-19T20:36:19.360Z,88.80
2019-05-19T20:38:48.080Z,89.10
2019-05-19T20:41:16.825Z,90.60
2019-05-19T20:43:45.611Z,90.70
2019-05-19T20:46:15.179Z,91.00
2019-05-19T20:48:43.816Z,91.10
2019-05-19T20:51:12.518Z,91.30
2019-05-19T20:53:41.212Z,91.10
2019-05-19T20:56:09.923Z,91.00
2019-05-19T20:58:38.610Z,90.70
2019-05-19T21:01:07.327Z,91.20
2019-05-19T21:03:36.025Z,91.30
2019-05-19T21:06:04.806Z,91.50
2019-05-19T21:08:33.479Z,91.40
2019-05-19T21:11:02.164Z,90.60
2019-05-19T21:13:30.873Z,90.10
2019-05-19T21:15:59.531Z,90.50
2019-05-19T21:18:28.229Z,91.40
2019-05-19T21:20:56.921Z,91.90
2019-05-19T21:23:25.635Z,92.10
2019-05-19T21:25:54.340Z,92.50
2019-05-19T21:28:22.974Z,92.70
2019-05-19T21:31:04.973Z,93.10
2019-05-19T21:33:21.985Z,93.30
2019-05-19T21:35:50.658Z,93.30
2019-05-19T21:38:19.354Z,93.40
2019-05-19T21:40:47.996Z,93.40
2019-05-19T21:43:16.637Z,93.50
2019-05-19T21:45:45.302Z,93.70
2019-05-19T21:48:14.096Z,93.60
2019-05-19T21:50:42.880Z,93.50
2019-05-19T21:53:11.638Z,93.10
2019-05-19T21:55:40.335Z,93.40
2019-05-19T21:58:09.006Z,93.70
2019-05-19T22:00:38.187Z,93.90
2019-05-19T22:03:06.915Z,93.70
2019-05-19T22:05:35.530Z,93.80
2019-05-19T22:08:05.827Z,93.40
2019-05-19T22:10:34.618Z,93.30
2019-05-19T22:13:03.337Z,92.10
2019-05-19T22:15:32.064Z,91.30
2019-05-19T22:18:00.766Z,91.50
2019-05-19T22:20:29.561Z,92.20
2019-05-19T22:22:58.193Z,91.80
2019-05-19T22:25:26.968Z,91.40
2019-05-19T22:27:55.678Z,91.40
2019-05-19T22:30:24.297Z,92.10
2019-05-19T22:32:52.938Z,91.90
2019-05-19T22:35:21.686Z,91.80
2019-05-19T22:37:50.391Z,91.60
2019-05-19T22:40:18.995Z,91.50
2019-05-19T22:42:47.731Z,91.90
2019-05-19T22:45:16.434Z,92.30
2019-05-19T22:47:45.143Z,93.00
2019-05-19T22:50:14.497Z,93.10
2019-05-19T22:52:46.003Z,93.60
2019-05-19T22:55:14.752Z,93.40
2019-05-19T22:57:43.532Z,93.40
2019-05-19T23:00:13.057Z,93.30
2019-05-19T23:02:41.780Z,94.40
2019-05-19T23:05:11.429Z,94.10
2019-05-19T23:07:40.127Z,93.50
2019-05-19T23:10:10.476Z,93.50
2019-05-19T23:12:39.171Z,94.60
2019-05-19T23:15:08.561Z,94.50
2019-05-19T23:17:37.356Z,94.60
2019-05-19T23:20:06.483Z,94.20
2019-05-19T23:22:35.082Z,94.50
2019-05-19T23:25:04.817Z,94.70
2019-05-19T23:27:33.487Z,94.20
2019-05-19T23:30:02.132Z,94.20
2019-05-19T23:32:30.833Z,94.20
2019-05-19T23:34:59.512Z,94.00
2019-05-19T23:37:28.319Z,94.50
2019-05-19T23:39:57.031Z,94.70
2019-05-19T23:42:25.698Z,95.20
2019-05-19T23:44:54.430Z,95.10
2019-05-19T23:47:23.066Z,94.70
2019-05-19T23:49:51.768Z,94.70
2019-05-19T23:52:20.452Z,94.70
2019-05-19T23:54:49.168Z,94.80
2019-05-19T23:57:17.862Z,93.90
2019-05-19T23:59:46.463Z,94.20
